Aérodrome :
LOGIN :

S'inscrire | Disclaimer

   EN    FR    IT 

 










Légende :    VFR   VFR Marginal   IFR   IFR Intensif   IFR Très Intensif
Visi : 
Plafond : 
>= 8 km
>= 3000ft
5 à 8 km
1000 à 3000 ft
1500m à 5 km
500 à 1000 ft
800 à 1500m
200 à 500 ft
< 800m
< 200 ft
Symboles :   Orages  Brouillard  Fortes neiges  Fortes précipitations  Vent > 20 kt
SIGMETs :   Divers  Orages  Givrage  Turbulence  Onde Orograph.  Cendres Volcan.






- Altitude de l'aérodrome : 291 ft
- Code IATA : ORY


LFPO - Paris-Orly

DERNIER METAR :
  • 271230Z AUTO 06006KT 020V110 CAVOK 24/09 Q1032 NOSIG

METARs EXPIRÉS :
  • 271200Z AUTO 04009KT 360V070 CAVOK 24/11 Q1032 NOSIG
  • 271130Z AUTO 05009KT 360V110 CAVOK 24/09 Q1033 NOSIG
  • 271100Z AUTO 04009KT CAVOK 24/09 Q1033 NOSIG
  • 271030Z AUTO 07010KT CAVOK 23/09 Q1033 NOSIG
  • 271000Z AUTO 07008KT 030V110 CAVOK 23/09 Q1033 NOSIG

TAF TAF LFPO
Valide du 27 à 12h jusqu'au 28 à 18h UTC


271100Z 2712/2818 03008KT CAVOK
ATIS : +33 1 49 75 65 80



MET'MAP, la Météo Aéronautique d'un coup d'oeil ! - Copyright ORBIFLY Décembre 2007 - Disclaimer

ORBIFLY MET'MAP TEAM :

Programmation & Développement : Alexandra Zaïnal
Sur une idée originale de : Baudouin d'Aumeries
Assistance à la programmation : Marc-Olivier Méhu
Soutien technique & logistique : Manuel Goepfert

Contact : metmap@orbifly.com




SOURCES & CREDITS :

   NOAA